Flight Track Log - Related Links

Times and Time Zones

All times are in EDT time to prevent confusion due to time zone crossing. See the ASQ6115 flight status page for this flight to view local times or setup timezone preferences in your user account.

Time Position Orientation Groundspeed Altitude Reporting Facility
EDT Latitude Longitude Course Direction KTS MPH feet Rate Location/Type
Fri 07:26:35 PM 41.9667 -87.9333 345° North 179 206 2,400  Level Chicago TRACON
Fri 07:27:29 PM 41.9667 -88.0000 270° West 200 230 4,300 1,368 Climbing Chicago TRACON
Fri 07:28:29 PM 41.9667 -88.0833 270° West 248 285 5,000 442 Climbing Chicago TRACON
Fri 07:29:00 PM 42.2817 -87.9996 350° North  Level FlightAware Approximate
Fri 07:29:04 PM 41.9564 -88.1358 255° West 228 262 5,000  Level Chicago Center
Fri 07:30:00 PM 42.3615 -88.0205 346° North  Level FlightAware Approximate
Fri 07:30:06 PM 41.9728 -88.2256 284° West 259 298 7,000  Level Chicago Center
Fri 07:31:00 PM 42.4405 -88.0468 346° North  Level FlightAware Approximate
Fri 07:31:08 PM 42.0325 -88.2642 334° Northwest 293 337 9,900  Level Chicago Center
Fri 07:32:00 PM 42.5194 -88.0735 345° North  Level FlightAware Approximate
Fri 07:32:10 PM 42.1006 -88.1950 37° Northeast 302 348 11,200  Level Chicago Center
Fri 07:33:11 PM 42.1944 -88.0947 38° Northeast 349 402 12,000 390 Climbing Chicago Center
Fri 07:34:13 PM 42.2864 -88.0358 25° Northeast 378 435 12,000 48 Level Chicago Center
Fri 07:35:15 PM 42.3831 -88.0375 359° North 366 421 12,100 48 Climbing Chicago Center
Fri 07:36:17 PM 42.4864 -88.0364 360° North 369 425 12,100 -48 Level Chicago Center
Fri 07:37:19 PM 42.5992 -88.0706 347° North 363 418 12,000 -48 Descending Chicago Center
Fri 07:38:21 PM 42.6925 -88.1183 339° North 357 411 12,000  Level Chicago Center
Fri 07:39:23 PM 42.7881 -88.1692 339° North 366 421 12,000  Level Chicago Center
Fri 07:40:25 PM 42.8819 -88.2169 340° North 362 417 12,000 -242 Level Chicago Center
Fri 07:41:27 PM 42.9564 -88.3003 321° Northwest 353 406 11,500 -726 Descending Chicago Center
Fri 07:42:29 PM 42.9847 -88.4264 287° West 354 407 10,500 -726 Descending Chicago Center
Fri 07:43:31 PM 43.0175 -88.5633 288° West 329 379 10,000 -242 Descending Chicago Center
Fri 07:44:33 PM 43.0519 -88.6828 292° West 331 381 10,000 -145 Level Chicago Center
Fri 07:45:35 PM 43.0878 -88.7992 293° West 333 383 9,700 -968 Descending Chicago Center
Fri 07:46:37 PM 43.1125 -88.8878 291° West 260 299 8,000 -1,645 Descending Chicago Center
Fri 07:47:39 PM 43.1389 -88.9747 293° West 253 291 6,300 -1,597 Descending Chicago Center
Fri 07:48:41 PM 43.1622 -89.0561 291° West 241 277 4,700 -1,210 Descending Chicago Center
Fri 07:49:43 PM 43.1853 -89.1331 292° West 228 262 3,800 -774 Descending Chicago Center
Fri 07:50:45 PM 43.2114 -89.2189 293° West 217 250 3,100 -677 Descending Chicago Center

Login

Don't have an account? Register now (free) for customized features, flight alerts, and more!